Weather reports worldwide

Advertisment
Siracusa, Italy (16464): temperature & dewpoint: 12.01.2018 14:00:00 - 18.01.2018 14:00:00 (CET)Siracusa, Italy (16464): wind speed: 12.01.2018 14:00:00 - 18.01.2018 14:00:00 (CET)Siracusa, Italy (16464): wind direction: 12.01.2018 14:00:00 - 18.01.2018 14:00:00 (CET)Siracusa, Italy (16464): reduced air pressure: 12.01.2018 14:00:00 - 18.01.2018 14:00:00 (CET)Siracusa, Italy (16464): precipitation: 12.01.2018 14:00:00 - 18.01.2018 14:00:00 (CET)
Date & Time tt [°C] td [°C] ff [km/h] ff [kn] dd ppp [hPa] rr [mm]
18.01.2018 14:00:00 - - - - - - -
18.01.2018 13:00:00 - - - - - - 0,0
18.01.2018 12:00:00 - - - - - - -
18.01.2018 11:00:00 - - - - - - -
18.01.2018 10:00:00 - - - - - - -
18.01.2018 09:00:00 - - - - - - -
18.01.2018 08:00:00 - - - - - - -
18.01.2018 07:00:00 - - - - - - 0,0
18.01.2018 06:00:00 - - - - - - -
18.01.2018 05:00:00 - - - - - - -
18.01.2018 04:00:00 - - - - - - -
18.01.2018 03:00:00 - - - - - - -
18.01.2018 02:00:00 - - - - - - -
18.01.2018 01:00:00 - - - - - - 0,0
18.01.2018 00:00:00 - - - - - - -
17.01.2018 23:00:00 - - - - - - -
17.01.2018 22:00:00 - - - - - - -
17.01.2018 21:00:00 - - - - - - -
17.01.2018 20:00:00 - - - - - - -
17.01.2018 19:00:00 - - - - - - 0,0
17.01.2018 18:00:00 - - - - - - -
17.01.2018 17:00:00 - - - - - - -
17.01.2018 16:00:00 - - - - - - -
17.01.2018 15:00:00 - - - - - - -
17.01.2018 14:00:00 - - - - - - -
17.01.2018 13:00:00 - - - - - - 0,0
17.01.2018 12:00:00 - - - - - - -
17.01.2018 11:00:00 - - - - - - -
17.01.2018 10:00:00 - - - - - - -
17.01.2018 09:00:00 - - - - - - -
17.01.2018 08:00:00 - - - - - - -
17.01.2018 07:00:00 - - - - - - 0,0
17.01.2018 06:00:00 - - - - - - -
17.01.2018 05:00:00 - - - - - - -
17.01.2018 04:00:00 - - - - - - -
17.01.2018 03:00:00 - - - - - - -
17.01.2018 02:00:00 - - - - - - -
17.01.2018 01:00:00 - - - - - - 0,0
17.01.2018 00:00:00 - - - - - - -
16.01.2018 23:00:00 - - - - - - -
16.01.2018 22:00:00 - - - - - - -
16.01.2018 21:00:00 - - - - - - -
16.01.2018 20:00:00 - - - - - - -
16.01.2018 19:00:00 - - - - - - -
16.01.2018 18:00:00 - - - - - - -
16.01.2018 17:00:00 - - - - - - -
16.01.2018 16:00:00 - - - - - - -
16.01.2018 15:00:00 18,3 - - - - 1020,8 -
16.01.2018 14:00:00 17,9 - - - - 1021,4 -
16.01.2018 13:00:00 16,9 - - - - 1022,5 0,0
16.01.2018 12:00:00 16,6 - - - - 1023,8 -
16.01.2018 11:00:00 16,6 - - - - 1024,6 -
16.01.2018 10:00:00 15,6 8,5 - - - 1024,6 -
16.01.2018 09:00:00 12,9 7,3 - - - 1024,2 -
16.01.2018 08:00:00 10,8 5,3 5 3 W 1023,9 -
16.01.2018 07:00:00 10,2 - 4 2 NNW 1024,1 0,0
16.01.2018 06:00:00 9,5 5,0 4 2 SW 1024,0 -
16.01.2018 05:00:00 10,0 5,5 8 4 WNW 1024,0 -
16.01.2018 04:00:00 10,5 5,6 9 5 WNW 1024,3 -
16.01.2018 03:00:00 10,4 5,5 11 6 WNW 1025,0 -
16.01.2018 02:00:00 9,9 5,4 11 6 WNW 1024,9 -
16.01.2018 01:00:00 8,5 3,3 5 3 W 1024,6 0,0
16.01.2018 00:00:00 10,0 5,3 4 2 SW 1025,0 -
15.01.2018 23:00:00 8,6 2,7 4 2 WSW 1025,2 -
15.01.2018 22:00:00 10,3 4,4 9 5 WSW 1024,9 -
15.01.2018 21:00:00 10,7 3,6 5 3 NW 1024,4 -
15.01.2018 20:00:00 12,2 3,8 4 2 NNW 1024,1 -
15.01.2018 19:00:00 13,6 4,4 4 2 WNW 1023,9 0,0
15.01.2018 18:00:00 14,0 5,3 2 1 WSW 1023,6 -
15.01.2018 17:00:00 15,1 4,7 5 3 W 1023,1 -
15.01.2018 16:00:00 16,2 4,5 5 3 WNW 1023,1 -
15.01.2018 15:00:00 17,0 5,5 5 3 WSW 1023,0 -
15.01.2018 14:00:00 16,8 5,9 9 5 SW 1023,1 -
15.01.2018 13:00:00 15,4 9,2 5 3 S 1023,7 0,0
15.01.2018 12:00:00 14,5 8,2 4 2 S 1024,4 -
15.01.2018 11:00:00 13,6 10,0 2 1 SSE 1024,8 -
15.01.2018 10:00:00 11,4 8,8 4 2 NW 1024,7 -
15.01.2018 09:00:00 8,9 5,8 4 2 NW 1024,5 -
15.01.2018 08:00:00 7,7 4,8 4 2 WNW 1024,3 -
15.01.2018 07:00:00 7,1 3,8 4 2 NW 1023,7 0,0
15.01.2018 06:00:00 7,4 4,3 4 2 WNW 1023,7 -
15.01.2018 05:00:00 7,4 4,1 4 2 NW 1023,6 -
15.01.2018 04:00:00 7,2 3,8 - - - 1024,0 -
15.01.2018 03:00:00 7,4 - 4 2 NW 1024,3 -
15.01.2018 02:00:00 7,6 3,8 - - - 1024,3 -
15.01.2018 01:00:00 7,5 - 4 2 WNW 1024,3 0,0
15.01.2018 00:00:00 7,9 - - - - 1024,4 -
14.01.2018 23:00:00 9,0 - - - - 1024,6 -
14.01.2018 22:00:00 9,4 - - - - 1024,3 -
14.01.2018 21:00:00 10,4 4,7 - - - 1024,3 -
14.01.2018 20:00:00 11,2 - - - - 1023,7 -
14.01.2018 19:00:00 11,2 - - - - 1023,6 0,0
14.01.2018 18:00:00 12,7 - 8 4 W 1023,1 -
14.01.2018 17:00:00 15,3 - - - - 1022,5 -
14.01.2018 16:00:00 16,7 - - - - 1022,2 -
14.01.2018 15:00:00 16,1 - - - - 1021,9 -
14.01.2018 14:00:00 15,0 - - - - 1021,9 -
14.01.2018 13:00:00 15,1 - - - - 1021,8 0,0
14.01.2018 12:00:00 15,8 - - - - 1022,4 -
14.01.2018 11:00:00 14,3 - - - - 1022,8 -
14.01.2018 10:00:00 12,4 - - - - 1022,6 -
14.01.2018 09:00:00 7,9 - - - - 1022,2 -
14.01.2018 08:00:00 5,3 - - - - 1021,6 -
14.01.2018 07:00:00 4,4 0,3 2 1 WSW 1021,3 0,0
14.01.2018 06:00:00 4,6 0,1 4 2 WNW 1020,8 -
14.01.2018 05:00:00 5,4 0,7 5 3 NW 1020,7 -
14.01.2018 04:00:00 6,4 2,0 2 1 WNW 1020,7 -
14.01.2018 03:00:00 6,4 1,9 5 3 WNW 1020,5 -
14.01.2018 02:00:00 6,7 1,9 5 3 WNW 1020,3 -
14.01.2018 01:00:00 7,0 2,0 4 2 WNW 1020,4 0,0
14.01.2018 00:00:00 7,3 2,5 8 4 W 1020,7 -
13.01.2018 23:00:00 7,4 2,2 5 3 WNW 1020,3 -
13.01.2018 22:00:00 8,7 2,8 4 2 NW 1019,9 -
13.01.2018 21:00:00 10,0 3,0 4 2 W 1019,6 -
13.01.2018 20:00:00 10,8 4,2 5 3 NW 1019,2 -
13.01.2018 19:00:00 11,2 4,6 4 2 NW 1018,4 0,0
13.01.2018 18:00:00 14,2 7,0 4 2 NNE 1017,4 -
13.01.2018 17:00:00 14,7 6,2 4 2 N 1016,9 -
13.01.2018 16:00:00 15,1 7,6 8 4 NNW 1016,3 -
13.01.2018 15:00:00 15,7 7,1 16 9 N 1015,7 -
13.01.2018 14:00:00 15,6 6,8 15 8 NNE 1015,1 -
13.01.2018 13:00:00 15,6 4,5 15 8 N 1014,9 0,0
13.01.2018 12:00:00 14,8 3,8 15 8 NNW 1015,2 -
13.01.2018 11:00:00 14,6 3,0 11 6 N 1014,8 -
13.01.2018 10:00:00 14,0 6,0 8 4 W 1014,3 -
13.01.2018 09:00:00 10,0 4,1 4 2 WNW 1013,8 -
13.01.2018 08:00:00 10,1 3,5 5 3 NNW 1013,2 -
13.01.2018 07:00:00 9,7 3,4 4 2 WNW 1013,0 0,0
13.01.2018 06:00:00 10,9 3,6 8 4 NW 1012,5 -
13.01.2018 05:00:00 11,4 4,3 15 8 N 1011,9 -
13.01.2018 04:00:00 11,0 5,9 13 7 NNW 1012,0 -
13.01.2018 03:00:00 6,5 3,3 4 2 NW 1012,1 -
13.01.2018 02:00:00 6,1 2,9 5 3 WNW 1011,9 -
13.01.2018 01:00:00 5,8 2,4 5 3 W 1011,7 0,0
13.01.2018 00:00:00 5,9 2,3 5 3 WNW 1011,8 -
12.01.2018 23:00:00 5,9 1,8 5 3 WNW 1012,0 -
12.01.2018 22:00:00 6,9 2,5 4 2 W 1011,7 -
12.01.2018 21:00:00 8,4 3,8 2 1 NW 1011,5 -
12.01.2018 20:00:00 8,5 3,3 4 2 NW 1011,2 -
12.01.2018 19:00:00 9,6 3,9 0 0 N 1011,0 0,0
12.01.2018 18:00:00 10,2 4,3 5 3 WNW 1010,7 -
12.01.2018 17:00:00 11,4 5,0 5 3 W 1010,3 -
12.01.2018 16:00:00 12,1 5,0 11 6 WSW 1009,9 -
12.01.2018 15:00:00 12,5 6,9 15 8 SW 1009,9 -
12.01.2018 14:00:00 13,5 7,2 26 14 SW 1010,0 -

tt = temperature
td = dewpoint
ff = wind speed
dd = wind direction
ppp = reduced air pressure
rr = precipitation

Next stations